createdAt,value
2018-06-22T00:00:17.223Z,11.70
2018-06-22T00:02:46.512Z,11.70
2018-06-22T00:05:15.754Z,11.60
2018-06-22T00:07:44.988Z,11.50
2018-06-22T00:12:43.294Z,11.40
2018-06-22T00:15:12.658Z,11.40
2018-06-22T00:17:41.903Z,11.40
2018-06-22T00:20:11.163Z,11.30
2018-06-22T00:22:40.372Z,11.30
2018-06-22T00:25:09.585Z,11.20
2018-06-22T00:27:38.823Z,11.10
2018-06-22T00:30:08.062Z,11.10
2018-06-22T00:32:37.280Z,11.00
2018-06-22T00:35:06.843Z,11.90
2018-06-22T00:37:36.048Z,11.00
2018-06-22T00:40:05.306Z,11.00
2018-06-22T00:42:34.543Z,10.90
2018-06-22T00:45:03.798Z,10.90
2018-06-22T00:47:32.994Z,10.90
2018-06-22T00:50:02.301Z,10.80
2018-06-22T00:52:31.502Z,10.80
2018-06-22T00:55:00.754Z,10.80
2018-06-22T00:57:29.973Z,10.70
2018-06-22T00:59:59.172Z,10.70
2018-06-22T01:02:28.881Z,10.70
2018-06-22T01:04:58.143Z,10.60
2018-06-22T01:07:27.420Z,10.60
2018-06-22T01:09:56.704Z,10.50
2018-06-22T01:12:26.019Z,10.40
2018-06-22T01:17:24.419Z,10.20
2018-06-22T01:19:53.706Z,10.20
2018-06-22T01:22:23.122Z,10.20
2018-06-22T01:24:52.357Z,10.10
2018-06-22T01:27:21.761Z,10.10
2018-06-22T01:29:51.026Z,10.00
2018-06-22T01:32:20.456Z,10.00
2018-06-22T01:34:49.815Z,9.90
2018-06-22T01:37:19.236Z,9.90
2018-06-22T01:39:50.822Z,9.90
2018-06-22T01:42:20.225Z,9.90
2018-06-22T01:44:49.583Z,9.90
2018-06-22T01:47:18.961Z,9.80
2018-06-22T01:49:48.236Z,9.70
2018-06-22T01:52:17.603Z,9.70
2018-06-22T01:54:46.843Z,9.70
2018-06-22T01:57:16.124Z,9.70
2018-06-22T01:59:45.406Z,9.70
2018-06-22T02:02:14.691Z,9.70
2018-06-22T02:04:43.948Z,9.70
2018-06-22T02:07:13.221Z,9.70
2018-06-22T02:09:42.468Z,9.60
2018-06-22T02:12:11.758Z,9.50
2018-06-22T02:14:42.655Z,9.50
2018-06-22T02:17:11.971Z,9.50
2018-06-22T02:19:41.469Z,9.50
2018-06-22T02:22:10.738Z,9.50
2018-06-22T02:24:40.079Z,9.50
2018-06-22T02:27:09.368Z,9.50
2018-06-22T02:29:38.687Z,9.40
2018-06-22T02:32:07.958Z,9.50
2018-06-22T02:34:37.231Z,9.40
2018-06-22T02:37:06.534Z,9.50
2018-06-22T02:39:35.801Z,9.50
2018-06-22T02:42:05.103Z,9.50
2018-06-22T02:47:03.442Z,9.50
2018-06-22T02:49:32.690Z,9.40
2018-06-22T02:52:01.946Z,9.40
2018-06-22T02:54:31.226Z,9.40
2018-06-22T02:57:00.495Z,9.40
2018-06-22T02:59:29.747Z,9.40
2018-06-22T03:01:59.171Z,9.40
2018-06-22T03:04:28.437Z,9.40
2018-06-22T03:06:57.697Z,9.40
2018-06-22T03:09:27.003Z,9.40
2018-06-22T03:11:56.262Z,9.40
2018-06-22T03:14:25.485Z,9.40
2018-06-22T03:19:23.684Z,9.40
2018-06-22T03:21:53.599Z,9.40
2018-06-22T03:24:22.810Z,9.40
2018-06-22T03:26:52.034Z,9.40
2018-06-22T03:29:21.282Z,9.40
2018-06-22T03:31:50.541Z,9.40
2018-06-22T03:34:19.835Z,9.40
2018-06-22T03:36:49.107Z,9.40
2018-06-22T03:39:18.365Z,9.40
2018-06-22T03:41:47.538Z,9.40
2018-06-22T03:44:16.716Z,9.50
2018-06-22T03:46:45.898Z,9.50
2018-06-22T03:49:15.099Z,9.50
2018-06-22T03:51:44.285Z,9.60
2018-06-22T03:54:13.509Z,9.60
2018-06-22T03:56:42.865Z,9.60
2018-06-22T03:59:12.070Z,9.60
2018-06-22T04:04:10.371Z,9.70
2018-06-22T04:06:39.615Z,9.70
2018-06-22T04:09:08.960Z,9.80
2018-06-22T04:11:38.531Z,9.80
2018-06-22T04:14:07.759Z,9.80
2018-06-22T04:16:38.043Z,9.80
2018-06-22T04:19:07.323Z,9.90
2018-06-22T04:21:36.602Z,9.90
2018-06-22T04:24:05.922Z,9.90
2018-06-22T04:26:35.156Z,10.00
2018-06-22T04:29:04.387Z,10.00
2018-06-22T04:31:33.650Z,10.00
2018-06-22T04:34:02.882Z,10.00
2018-06-22T04:39:01.291Z,10.10
2018-06-22T04:41:31.028Z,10.10
2018-06-22T04:44:00.307Z,10.30
2018-06-22T04:46:29.516Z,11.40
2018-06-22T04:48:58.816Z,13.10
2018-06-22T04:51:28.371Z,14.90
2018-06-22T04:53:57.588Z,16.20
2018-06-22T04:56:26.885Z,17.00
2018-06-22T05:01:25.159Z,17.60
2018-06-22T05:03:54.392Z,18.20
2018-06-22T05:06:23.587Z,18.80
2018-06-22T05:08:52.807Z,19.20
2018-06-22T05:11:22.075Z,19.60
2018-06-22T05:16:20.282Z,19.60
2018-06-22T05:18:49.521Z,19.60
2018-06-22T05:21:18.792Z,19.90
2018-06-22T05:23:48.058Z,20.20
2018-06-22T05:26:17.279Z,20.70
2018-06-22T05:28:46.476Z,20.70
2018-06-22T05:31:15.684Z,21.60
2018-06-22T05:33:44.943Z,22.10
2018-06-22T05:36:14.135Z,22.10
2018-06-22T05:38:43.344Z,22.10
2018-06-22T05:41:12.586Z,21.80
2018-06-22T05:43:41.834Z,21.80
2018-06-22T05:46:11.039Z,22.00
2018-06-22T05:48:40.279Z,21.30
2018-06-22T05:51:09.502Z,21.10
2018-06-22T05:53:38.783Z,21.00
2018-06-22T05:56:07.980Z,21.40
2018-06-22T05:58:37.278Z,21.30
2018-06-22T06:01:06.542Z,21.50
2018-06-22T06:03:35.978Z,21.60
2018-06-22T06:06:05.249Z,21.50
2018-06-22T06:08:34.469Z,21.50
2018-06-22T06:11:03.735Z,21.60
2018-06-22T06:13:32.992Z,21.90
2018-06-22T06:16:02.279Z,21.70
2018-06-22T06:18:31.499Z,21.90
2018-06-22T06:21:00.741Z,22.00
2018-06-22T06:23:29.943Z,22.10
2018-06-22T06:25:59.175Z,22.10
2018-06-22T06:28:28.832Z,22.30
2018-06-22T06:30:58.390Z,21.90
2018-06-22T06:33:27.639Z,21.70
2018-06-22T06:35:56.862Z,21.40
2018-06-22T06:38:26.102Z,21.70
2018-06-22T06:40:56.926Z,22.10
2018-06-22T06:43:26.131Z,22.20
2018-06-22T06:45:55.393Z,21.80
2018-06-22T06:48:24.659Z,21.30
2018-06-22T06:50:53.870Z,20.40
2018-06-22T06:53:23.055Z,19.20
2018-06-22T06:55:52.354Z,18.70
2018-06-22T06:58:21.661Z,18.50
2018-06-22T07:00:51.064Z,17.20
2018-06-22T07:03:20.478Z,16.40
2018-06-22T07:05:49.786Z,15.90
2018-06-22T07:08:19.197Z,15.70
2018-06-22T07:10:48.518Z,15.70
2018-06-22T07:13:17.770Z,15.60
2018-06-22T07:15:47.149Z,15.60
2018-06-22T07:18:16.562Z,15.70
2018-06-22T07:20:45.898Z,15.40
2018-06-22T07:23:15.227Z,14.90
2018-06-22T07:25:44.563Z,15.00
2018-06-22T07:28:16.846Z,15.20
2018-06-22T07:30:46.120Z,15.40
2018-06-22T07:33:15.363Z,15.50
2018-06-22T07:35:44.679Z,15.40
2018-06-22T07:38:14.021Z,15.30
2018-06-22T07:40:43.935Z,15.60
2018-06-22T07:43:13.337Z,16.10
2018-06-22T07:45:42.610Z,16.20
2018-06-22T07:48:11.890Z,16.20
2018-06-22T07:50:41.286Z,16.40
2018-06-22T07:53:10.596Z,16.10
2018-06-22T07:55:39.962Z,15.90
2018-06-22T07:58:09.266Z,15.80
2018-06-22T08:00:38.587Z,15.70
2018-06-22T08:03:07.901Z,16.00
2018-06-22T08:05:37.147Z,16.20
2018-06-22T08:08:06.666Z,16.50
2018-06-22T08:10:37.147Z,16.70
2018-06-22T08:13:06.530Z,16.70
2018-06-22T08:15:36.047Z,16.80
2018-06-22T08:18:08.560Z,16.70
2018-06-22T08:20:37.950Z,16.50
2018-06-22T08:23:07.429Z,16.40
2018-06-22T08:25:37.387Z,16.30
2018-06-22T08:28:06.843Z,16.30
2018-06-22T08:33:05.665Z,16.50
2018-06-22T08:35:35.095Z,16.50
2018-06-22T08:38:04.941Z,16.50
2018-06-22T08:40:34.338Z,16.40
2018-06-22T08:45:33.020Z,16.10
2018-06-22T08:48:02.393Z,16.10
2018-06-22T08:50:31.835Z,16.60
2018-06-22T08:53:01.560Z,17.10
2018-06-22T08:55:30.866Z,17.00
2018-06-22T08:58:00.240Z,16.80
2018-06-22T09:00:29.610Z,16.90
2018-06-22T09:02:58.947Z,17.10
2018-06-22T09:05:28.415Z,17.30
2018-06-22T09:07:57.889Z,17.10
2018-06-22T09:10:28.303Z,17.00
2018-06-22T09:12:57.740Z,16.80
2018-06-22T09:15:27.150Z,16.70
2018-06-22T09:17:56.651Z,16.50
2018-06-22T09:20:26.122Z,16.40
2018-06-22T09:22:55.515Z,16.30
2018-06-22T09:25:24.838Z,16.50
2018-06-22T09:27:54.247Z,16.90
2018-06-22T09:30:23.571Z,17.20
2018-06-22T09:32:52.899Z,17.30
2018-06-22T09:35:22.208Z,17.60
2018-06-22T09:37:51.566Z,18.00
2018-06-22T09:40:20.920Z,18.10
2018-06-22T09:42:50.277Z,17.90
2018-06-22T09:45:19.534Z,17.80
2018-06-22T09:47:48.918Z,17.60
2018-06-22T09:52:47.170Z,17.50
2018-06-22T09:55:16.532Z,17.40
2018-06-22T09:57:45.706Z,17.40
2018-06-22T10:02:44.019Z,17.50
2018-06-22T10:05:13.290Z,17.40
2018-06-22T10:07:42.787Z,17.40
2018-06-22T10:10:11.992Z,17.70
2018-06-22T10:12:41.322Z,17.90
2018-06-22T10:15:10.617Z,18.50
2018-06-22T10:17:39.889Z,18.90
2018-06-22T10:20:09.283Z,18.70
2018-06-22T10:22:38.546Z,18.40
2018-06-22T10:25:07.890Z,17.90
2018-06-22T10:27:37.191Z,18.00
2018-06-22T10:30:06.621Z,18.30
2018-06-22T10:32:35.867Z,18.50
2018-06-22T10:35:05.198Z,18.50
2018-06-22T10:37:34.516Z,18.20
2018-06-22T10:40:03.984Z,18.00
2018-06-22T10:42:33.253Z,17.90
2018-06-22T10:47:31.930Z,17.90
2018-06-22T10:50:01.318Z,17.80
2018-06-22T10:52:30.625Z,18.10
2018-06-22T10:55:00.026Z,18.10
2018-06-22T10:57:29.316Z,18.20
2018-06-22T10:59:58.932Z,18.40
2018-06-22T11:02:28.316Z,18.50
2018-06-22T11:07:26.678Z,19.20
2018-06-22T11:09:56.044Z,19.10
2018-06-22T11:12:25.334Z,19.00
2018-06-22T11:14:54.670Z,18.60
2018-06-22T11:17:24.015Z,18.70
2018-06-22T11:19:53.271Z,18.90
2018-06-22T11:24:51.790Z,19.20
2018-06-22T11:27:21.111Z,19.20
2018-06-22T11:29:50.444Z,19.40
2018-06-22T11:32:19.963Z,19.40
2018-06-22T11:34:49.272Z,18.80
2018-06-22T11:37:19.028Z,18.80
2018-06-22T11:39:48.483Z,18.60
2018-06-22T11:42:17.788Z,18.50
2018-06-22T11:44:47.063Z,18.40
2018-06-22T11:47:16.369Z,18.20
2018-06-22T11:49:45.699Z,17.90
2018-06-22T11:52:15.055Z,17.80
2018-06-22T11:59:43.188Z,18.90
2018-06-22T12:02:12.532Z,19.20
2018-06-22T12:04:42.112Z,18.40
2018-06-22T12:07:11.607Z,19.10
2018-06-22T12:09:41.253Z,19.20
2018-06-22T12:12:10.615Z,19.60
2018-06-22T12:14:39.926Z,19.80
2018-06-22T12:17:09.233Z,19.50
2018-06-22T12:19:38.642Z,19.70
2018-06-22T12:22:07.983Z,20.00
2018-06-22T12:24:37.244Z,20.00
2018-06-22T12:27:06.535Z,19.70
2018-06-22T12:29:35.940Z,18.70
2018-06-22T12:32:05.411Z,18.80
2018-06-22T12:37:03.943Z,18.90
2018-06-22T12:42:02.681Z,19.00
2018-06-22T12:44:32.237Z,18.80
2018-06-22T12:47:01.890Z,18.90
2018-06-22T12:49:31.369Z,18.80
2018-06-22T12:52:00.705Z,18.90
2018-06-22T12:54:30.188Z,19.00
2018-06-22T12:56:59.546Z,19.10
2018-06-22T12:59:28.922Z,19.00
2018-06-22T13:01:58.323Z,19.20
2018-06-22T13:04:27.646Z,19.00
2018-06-22T13:06:57.122Z,19.00
2018-06-22T13:11:55.600Z,18.60
2018-06-22T13:14:24.951Z,18.60
2018-06-22T13:16:54.307Z,18.60
2018-06-22T13:19:23.664Z,18.40
2018-06-22T13:24:24.336Z,17.70
2018-06-22T13:26:53.688Z,17.40
2018-06-22T13:29:23.035Z,17.20
2018-06-22T13:31:52.499Z,17.20
2018-06-22T13:34:21.757Z,17.50
2018-06-22T13:36:51.149Z,17.90
2018-06-22T13:39:20.610Z,18.20
2018-06-22T13:41:50.116Z,18.30
2018-06-22T13:44:19.651Z,18.20
2018-06-22T13:46:48.990Z,18.20
2018-06-22T13:49:18.370Z,18.30
2018-06-22T13:51:47.767Z,18.30
2018-06-22T13:54:17.132Z,18.40
2018-06-22T13:56:46.535Z,18.50
2018-06-22T13:59:15.894Z,18.70
2018-06-22T14:01:46.197Z,18.70
2018-06-22T14:04:20.632Z,18.80
2018-06-22T14:06:56.404Z,19.10
2018-06-22T14:09:25.813Z,19.50
2018-06-22T14:11:55.052Z,19.80
2018-06-22T14:14:24.363Z,20.10
2018-06-22T14:16:53.832Z,19.80
2018-06-22T14:19:23.240Z,19.40
2018-06-22T14:21:52.621Z,19.20
2018-06-22T14:24:22.195Z,19.00
2018-06-22T14:26:51.545Z,18.90
2018-06-22T14:29:20.958Z,18.80
2018-06-22T14:31:50.339Z,18.80
2018-06-22T14:34:19.829Z,18.90
2018-06-22T14:36:49.326Z,19.40
2018-06-22T14:39:19.193Z,19.80
2018-06-22T14:41:48.639Z,19.70
2018-06-22T14:44:17.942Z,19.30
2018-06-22T14:46:47.192Z,18.90
2018-06-22T14:49:16.532Z,18.60
2018-06-22T14:51:57.803Z,18.50
2018-06-22T14:54:32.567Z,18.40
2018-06-22T14:57:07.083Z,18.50
2018-06-22T14:59:41.502Z,18.60
2018-06-22T15:02:16.565Z,18.80
2018-06-22T15:04:51.210Z,18.90
2018-06-22T15:07:25.767Z,18.70
2018-06-22T15:09:55.140Z,18.70
2018-06-22T15:12:24.473Z,18.80
2018-06-22T15:14:53.755Z,18.70
2018-06-22T15:19:52.356Z,18.90
2018-06-22T15:22:21.743Z,19.00
2018-06-22T15:24:51.147Z,18.90
2018-06-22T15:27:20.596Z,19.00
2018-06-22T15:29:50.007Z,19.00
2018-06-22T15:32:19.441Z,18.90
2018-06-22T15:36:56.568Z,18.50
2018-06-22T15:39:31.403Z,18.70
2018-06-22T15:42:06.026Z,18.80
2018-06-22T15:44:40.433Z,18.40
2018-06-22T15:47:15.036Z,18.30
2018-06-22T15:49:49.562Z,18.20
2018-06-22T15:52:23.930Z,18.00
2018-06-22T15:54:58.429Z,17.90
2018-06-22T15:57:27.683Z,17.70
2018-06-22T15:59:57.328Z,17.70
2018-06-22T16:03:30.539Z,17.50
2018-06-22T16:06:00.369Z,17.50
2018-06-22T16:08:29.606Z,17.60
2018-06-22T16:10:58.890Z,17.70
2018-06-22T16:13:28.145Z,17.70
2018-06-22T16:16:02.658Z,17.70
2018-06-22T16:18:37.298Z,17.70
2018-06-22T16:21:11.753Z,17.60
2018-06-22T16:23:46.087Z,17.60
2018-06-22T16:26:20.577Z,17.60
2018-06-22T16:28:49.714Z,17.50
2018-06-22T16:31:19.007Z,17.70
2018-06-22T16:33:56.541Z,18.00
2018-06-22T16:36:27.015Z,18.20
2018-06-22T16:38:56.451Z,18.20
2018-06-22T16:41:25.720Z,18.10
2018-06-22T16:43:54.963Z,18.20
2018-06-22T16:46:24.262Z,18.10
2018-06-22T16:48:53.435Z,18.10
2018-06-22T16:51:22.702Z,18.10
2018-06-22T16:53:51.986Z,17.80
2018-06-22T16:56:22.079Z,17.60
2018-06-22T17:01:20.390Z,17.40
2018-06-22T17:03:49.609Z,17.40
2018-06-22T17:06:18.900Z,17.40
2018-06-22T17:08:53.382Z,17.50
2018-06-22T17:11:27.771Z,17.50
2018-06-22T17:14:02.203Z,17.60
2018-06-22T17:16:36.955Z,17.50
2018-06-22T17:19:06.241Z,17.30
2018-06-22T17:21:35.544Z,17.30
2018-06-22T17:24:04.770Z,17.30
2018-06-22T17:26:34.039Z,17.20
2018-06-22T17:29:03.372Z,17.00
2018-06-22T17:31:32.619Z,17.00
2018-06-22T17:34:01.898Z,17.00
2018-06-22T17:36:31.163Z,16.90
2018-06-22T17:39:00.486Z,16.90
2018-06-22T17:41:29.827Z,16.90
2018-06-22T17:43:59.161Z,16.90
2018-06-22T17:46:28.539Z,16.90
2018-06-22T17:48:57.800Z,17.00
2018-06-22T17:51:27.102Z,17.00
2018-06-22T17:53:56.412Z,17.00
2018-06-22T17:56:30.907Z,17.00
2018-06-22T17:59:05.583Z,16.80
2018-06-22T18:01:40.097Z,16.80
2018-06-22T18:04:14.692Z,16.60
2018-06-22T18:06:49.059Z,16.50
2018-06-22T18:09:23.888Z,16.40
2018-06-22T18:11:58.613Z,16.40
2018-06-22T18:14:27.996Z,15.90
2018-06-22T18:16:57.367Z,16.30
2018-06-22T18:19:26.736Z,16.10
2018-06-22T18:21:56.179Z,16.10
2018-06-22T18:24:25.623Z,16.00
2018-06-22T18:26:54.960Z,15.90
2018-06-22T18:29:24.217Z,15.80
2018-06-22T18:31:53.542Z,15.70
2018-06-22T18:34:22.929Z,15.60
2018-06-22T18:36:52.226Z,15.70
2018-06-22T18:39:21.756Z,15.70
2018-06-22T18:41:51.032Z,15.60
2018-06-22T18:44:20.398Z,15.50
2018-06-22T18:46:49.773Z,15.60
2018-06-22T18:49:19.204Z,15.50
2018-06-22T18:51:52.607Z,15.60
2018-06-22T18:54:27.131Z,15.60
2018-06-22T18:57:01.794Z,15.50
2018-06-22T18:59:36.337Z,15.40
2018-06-22T19:02:10.839Z,15.40
2018-06-22T19:04:40.369Z,15.30
2018-06-22T19:07:09.839Z,15.20
2018-06-22T19:09:39.183Z,15.20
2018-06-22T19:12:08.506Z,15.20
2018-06-22T19:14:37.931Z,15.10
2018-06-22T19:17:07.308Z,15.00
2018-06-22T19:19:36.601Z,15.00
2018-06-22T19:22:05.914Z,14.90
2018-06-22T19:24:35.169Z,14.90
2018-06-22T19:27:04.481Z,14.80
2018-06-22T19:29:33.754Z,14.60
2018-06-22T19:32:03.008Z,14.50
2018-06-22T19:34:37.501Z,14.40
2018-06-22T19:37:07.020Z,14.20
2018-06-22T19:39:36.313Z,14.20
2018-06-22T19:42:05.628Z,14.10
2018-06-22T19:44:40.072Z,14.00
2018-06-22T19:47:14.628Z,13.90
2018-06-22T19:49:49.294Z,13.90
2018-06-22T19:52:23.915Z,13.70
2018-06-22T19:54:53.401Z,13.60
2018-06-22T19:57:22.614Z,13.60
2018-06-22T19:59:51.907Z,13.40
2018-06-22T20:02:21.200Z,13.30
2018-06-22T20:04:50.487Z,13.20
2018-06-22T20:07:19.876Z,13.10
2018-06-22T20:09:49.148Z,13.10
2018-06-22T20:12:18.374Z,13.00
2018-06-22T20:14:47.677Z,12.90
2018-06-22T20:17:17.039Z,12.80
2018-06-22T20:19:46.632Z,12.70
2018-06-22T20:22:15.945Z,12.70
2018-06-22T20:24:50.684Z,12.60
2018-06-22T20:27:20.058Z,12.50
2018-06-22T20:29:49.414Z,12.40
2018-06-22T20:32:18.855Z,12.40
2018-06-22T20:34:53.482Z,12.30
2018-06-22T20:37:28.159Z,12.30
2018-06-22T20:40:02.651Z,12.20
2018-06-22T20:42:37.158Z,12.10
2018-06-22T20:45:11.965Z,12.10
2018-06-22T20:47:46.420Z,12.10
2018-06-22T20:50:20.833Z,12.00
2018-06-22T20:52:50.115Z,12.00
2018-06-22T20:55:19.457Z,11.90
2018-06-22T20:57:48.819Z,11.90
2018-06-22T21:00:18.121Z,11.80
2018-06-22T21:02:47.376Z,11.80
2018-06-22T21:05:16.713Z,11.70
2018-06-22T21:07:46.080Z,11.60
2018-06-22T21:10:15.393Z,11.60
2018-06-22T21:12:44.730Z,11.50
2018-06-22T21:15:13.968Z,11.50
2018-06-22T21:17:43.290Z,11.40
2018-06-22T21:20:13.514Z,11.40
2018-06-22T21:22:42.945Z,11.30
2018-06-22T21:25:12.237Z,11.20
2018-06-22T21:27:46.742Z,11.10
2018-06-22T21:30:21.105Z,11.00
2018-06-22T21:32:55.658Z,11.00
2018-06-22T21:35:30.300Z,11.00
2018-06-22T21:38:05.314Z,10.90
2018-06-22T21:40:34.665Z,10.90
2018-06-22T21:43:04.022Z,10.90
2018-06-22T21:45:33.356Z,10.90
2018-06-22T21:50:31.802Z,10.80
2018-06-22T21:53:01.133Z,10.80
2018-06-22T21:55:30.430Z,10.70
2018-06-22T21:57:59.845Z,10.60
2018-06-22T22:00:32.805Z,10.60
2018-06-22T22:03:02.778Z,10.60
2018-06-22T22:05:32.361Z,10.60
2018-06-22T22:08:01.732Z,10.50
2018-06-22T22:10:36.465Z,10.50
2018-06-22T22:13:05.890Z,10.40
2018-06-22T22:15:35.320Z,10.40
2018-06-22T22:18:04.661Z,10.40
2018-06-22T22:20:34.016Z,10.30
2018-06-22T22:23:03.320Z,10.30
2018-06-22T22:25:32.610Z,10.20
2018-06-22T22:28:01.893Z,10.20
2018-06-22T22:30:31.152Z,10.10
2018-06-22T22:33:00.462Z,10.20
2018-06-22T22:35:29.737Z,10.20
2018-06-22T22:37:59.185Z,10.10
2018-06-22T22:40:28.494Z,10.10
2018-06-22T22:42:57.777Z,10.10
2018-06-22T22:45:27.054Z,10.10
2018-06-22T22:47:56.317Z,10.10
2018-06-22T22:50:25.599Z,10.10
2018-06-22T22:52:55.020Z,10.10
2018-06-22T22:55:24.883Z,10.10
2018-06-22T22:57:54.818Z,10.00
2018-06-22T23:00:24.148Z,10.00
2018-06-22T23:02:53.416Z,10.00
2018-06-22T23:05:22.735Z,10.00
2018-06-22T23:07:52.007Z,10.10
2018-06-22T23:10:21.339Z,10.10
2018-06-22T23:12:50.671Z,10.10
2018-06-22T23:15:20.032Z,10.00
2018-06-22T23:17:49.370Z,10.00
2018-06-22T23:20:18.745Z,10.00
2018-06-22T23:23:05.115Z,10.00
2018-06-22T23:25:34.451Z,9.90
2018-06-22T23:28:03.743Z,9.90
2018-06-22T23:30:33.063Z,9.80
2018-06-22T23:33:02.316Z,9.80
2018-06-22T23:35:31.626Z,9.70
2018-06-22T23:38:01.059Z,9.70
2018-06-22T23:40:30.388Z,9.70
2018-06-22T23:42:59.627Z,9.60
2018-06-22T23:45:28.923Z,9.60
2018-06-22T23:47:58.500Z,9.60
2018-06-22T23:50:27.786Z,9.50
2018-06-22T23:52:57.087Z,9.60
2018-06-22T23:55:26.379Z,9.60
2018-06-22T23:57:55.660Z,9.60
